マレ の空港の天気 - METARとTAF

マレ国際空港 ( VRMM / MLE ) - モルディブ Hulhule Island, North Male Atoll
飛行場実況気象(Metar)
観測時間11/15 21:00 MVT (11/15 16:00 UTC)
風向・風速西 2m/s
視程8000m
天気現象
少しの雲 雲底高度 580m
気温29℃
湿度74%
気圧1012hPa
METARVRMM 151600Z 27004KT 8000 FEW019 29/24 Q1012 NOSIG
過去の天気等 Google飛行場航空写真 Wunderground天気予報

過去48時間のMETAR

飛行場予報(TAF)
発表時間: 11/15 16:00 MVT (11/15 11:00 UTC)
予報対象時間: 15日17時 MVT ~ 16日23時 MVT
風向・風速西北西 4m/s
視程9000m
少しの雲 雲底高度 580m
TAF VRMM 151100Z 1512/1618 29008KT 9000 FEW019